< Typhoon 202122 2022 Season Typhoon 202202 >
Typhoon 202201 (MALAKAS)
General InformationTrack Information on Google MapsDetailed Wind InformationForecast History on Google MapsAccess Analytics MapList of All Images || NewsDisaster Info.JMA Disaster Info. XMLWeblogTrackbackTyphoon FrontTwiphoonTyphoon Now!Typhoon ImaginationResourceGoogle EarthGE AnimationAtom FeedGeoJSON
Detalied Best Track (Time Zone = UTC)
Year Month Day Hour Lat. Long. Pressure (hPa) Wind (kt) Class Image Chart
2022 4 6 06 3.4 150.2 1004 0 2 Image Chart
2022 4 6 12 3.5 149.6 1006 0 2 Image Chart
2022 4 6 18 3.5 149.1 1004 0 2 Image Chart
2022 4 7 00 3.8 148.4 1006 0 2 Image Chart
2022 4 7 06 4.0 147.7 1004 0 2 Image Chart
2022 4 7 12 4.1 147.1 1004 0 2 Image Chart
2022 4 7 18 4.5 146.3 1002 0 2 Image Chart
2022 4 8 00 5.1 145.9 1000 35 3 Image Chart
2022 4 8 06 5.6 145.7 998 35 3 Image Chart
2022 4 8 12 6.4 145.2 998 35 3 Image Chart
2022 4 8 18 6.7 144.9 996 40 3 Image Chart
2022 4 9 00 7.1 144.6 996 40 3 Image Chart
2022 4 9 06 7.5 143.6 996 40 3 Image Chart
2022 4 9 12 8.2 142.4 996 40 3 Image Chart
2022 4 9 18 9.4 141.2 996 40 3 Image Chart
2022 4 10 00 10.6 139.6 994 45 3 Image Chart
2022 4 10 06 11.1 138.6 992 45 3 Image Chart
2022 4 10 12 11.5 138.0 990 50 4 Image Chart
2022 4 10 18 11.8 137.1 990 50 4 Image Chart
2022 4 11 00 12.2 136.4 990 50 4 Image Chart
2022 4 11 06 13.1 136.2 990 50 4 Image Chart
2022 4 11 12 14.1 135.9 985 55 4 Image Chart
2022 4 11 18 14.8 135.6 980 60 4 Image Chart
2022 4 12 00 15.4 135.0 975 65 5 Image Chart
2022 4 12 06 15.8 135.1 970 70 5 Image Chart
2022 4 12 12 16.1 135.4 955 80 5 Image Chart
2022 4 12 18 16.7 135.9 955 80 5 Image Chart
2022 4 13 00 17.3 136.4 955 80 5 Image Chart
2022 4 13 06 17.8 137.0 950 85 5 Image Chart
2022 4 13 12 18.8 137.6 950 85 5 Image Chart
2022 4 13 18 19.8 137.5 945 90 5 Image Chart
2022 4 14 00 20.6 138.0 945 90 5 Image Chart
2022 4 14 06 21.7 138.5 945 90 5 Image Chart
2022 4 14 12 22.6 139.0 950 85 5 Image Chart
2022 4 14 15 23.2 139.5 950 85 5 Image Chart
2022 4 14 18 24.3 140.0 955 80 5 Image Chart
2022 4 14 21 25.3 140.3 955 80 5 Image Chart
2022 4 15 00 26.3 140.6 960 75 5 Image Chart
2022 4 15 03 27.1 141.1 965 70 5 Image Chart
2022 4 15 06 27.7 141.9 970 65 5 Image Chart
2022 4 15 09 29.3 142.6 970 65 5 Image Chart
2022 4 15 12 30.0 143.7 972 0 6 Image Chart
2022 4 15 18 32.0 146.0 972 0 6 Image Chart
2022 4 16 00 34.7 149.3 976 0 6 Image Chart
2022 4 16 06 37.8 152.1 976 0 6 Image Chart
2022 4 16 12 41.5 155.2 976 0 6 Image Chart
2022 4 16 18 44.9 158.7 972 0 6 Image Chart
2022 4 17 00 46.4 160.7 966 0 6 Image Chart
2022 4 17 06 48.9 165.8 966 0 6 Image Chart
2022 4 17 12 50.9 172.3 968 0 6 Image Chart
2022 4 17 18 52.6 178.7 968 0 6 Image Chart
2022 4 18 00 53.1 183.5 970 0 6 Image Chart
Japan Meteorological Agency Best Track Data | Correction Date : 2022-07-15
< Typhoon 202122 2022 Season Typhoon 202202 >

Help